Terminal Aerodrome Forecast
Issued by NWS Sterling, VA

Home | Current Version | Previous Version | Text Only | Print | Product List | Glossary On
Versions: 1 2 3 4 5 6 7 8 9 10 11 12 13 14 15 16 17 18 19 20 21
000
FTUS41 KLWX 171737
TAFDCA
TAF
KDCA 171737Z 1718/1818 18008KT 6SM BR OVC010
     FM172100 19007KT P6SM OVC010
     FM180600 23007KT 4SM BR BKN040
     FM180900 27006KT P6SM BKN040
     FM181500 30011G20KT P6SM SCT060=

USA.gov is the U.S. government's official web portal to all federal, state and local government web resources and services.